createdAt,value
2023-08-20T00:00:17.822Z,9.47
2023-08-20T00:02:25.321Z,9.30
2023-08-20T00:04:29.119Z,9.50
2023-08-20T00:06:33.267Z,9.60
2023-08-20T00:08:37.098Z,9.53
2023-08-20T00:10:40.625Z,10.33
2023-08-20T00:12:44.134Z,9.63
2023-08-20T00:14:55.226Z,8.67
2023-08-20T00:17:01.074Z,9.90
2023-08-20T00:19:05.297Z,9.10
2023-08-20T00:21:09.448Z,10.17
2023-08-20T00:23:13.509Z,10.53
2023-08-20T00:25:18.415Z,9.23
2023-08-20T00:27:21.855Z,9.20
2023-08-20T00:29:25.280Z,8.93
2023-08-20T00:31:28.679Z,8.50
2023-08-20T00:33:34.372Z,9.33
2023-08-20T00:35:37.992Z,10.40
2023-08-20T00:37:41.860Z,7.97
2023-08-20T00:39:47.436Z,8.57
2023-08-20T00:41:51.345Z,9.20
2023-08-20T00:43:54.753Z,9.53
2023-08-20T00:46:00.935Z,9.40
2023-08-20T00:48:06.306Z,10.00
2023-08-20T00:50:12.179Z,8.40
2023-08-20T00:52:18.036Z,10.63
2023-08-20T00:54:22.433Z,11.33
2023-08-20T00:56:25.898Z,10.93
2023-08-20T00:58:29.289Z,10.20
2023-08-20T01:00:34.723Z,11.40
2023-08-20T01:02:38.944Z,9.73
2023-08-20T01:04:43.219Z,10.47
2023-08-20T01:06:57.074Z,9.47
2023-08-20T01:09:07.803Z,8.83
2023-08-20T01:11:18.385Z,8.80
2023-08-20T01:13:21.892Z,9.90
2023-08-20T01:15:26.141Z,8.37
2023-08-20T01:17:30.411Z,10.40
2023-08-20T01:19:36.085Z,9.77
2023-08-20T01:21:41.304Z,9.67
2023-08-20T01:24:07.573Z,11.07
2023-08-20T01:26:25.712Z,10.07
2023-08-20T01:28:32.044Z,11.47
2023-08-20T01:30:37.138Z,11.40
2023-08-20T01:32:42.962Z,10.90
2023-08-20T01:34:49.520Z,10.40
2023-08-20T01:36:53.319Z,10.53
2023-08-20T01:38:56.851Z,10.03
2023-08-20T01:41:00.972Z,9.50
2023-08-20T01:43:04.625Z,9.40
2023-08-20T01:45:10.474Z,10.67
2023-08-20T01:47:14.664Z,10.20
2023-08-20T01:49:18.041Z,9.23
2023-08-20T01:51:22.011Z,10.43
2023-08-20T01:53:25.430Z,9.33
2023-08-20T01:55:31.152Z,10.10
2023-08-20T01:57:36.912Z,9.97
2023-08-20T01:59:40.521Z,10.17
2023-08-20T02:01:44.333Z,9.03
2023-08-20T02:03:48.039Z,8.87
2023-08-20T02:05:51.534Z,9.27
2023-08-20T02:07:54.915Z,9.80
2023-08-20T02:09:58.570Z,9.23
2023-08-20T02:12:01.952Z,9.70
2023-08-20T02:14:05.959Z,8.80
2023-08-20T02:16:09.744Z,9.20
2023-08-20T02:18:14.519Z,8.23
2023-08-20T02:20:18.620Z,8.57
2023-08-20T02:22:22.176Z,8.47
2023-08-20T02:24:24.617Z,9.77
2023-08-20T02:26:28.071Z,9.33
2023-08-20T02:28:30.612Z,9.97
2023-08-20T02:30:34.000Z,9.97
2023-08-20T02:32:37.420Z,9.00
2023-08-20T02:34:42.128Z,8.77
2023-08-20T02:36:45.526Z,8.93
2023-08-20T02:38:48.996Z,8.60
2023-08-20T02:40:52.389Z,9.17
2023-08-20T02:42:56.288Z,9.60
2023-08-20T02:45:00.851Z,9.43
2023-08-20T02:47:04.277Z,9.33
2023-08-20T02:49:08.368Z,10.67
2023-08-20T02:51:13.181Z,9.97
2023-08-20T02:53:16.661Z,10.33
2023-08-20T02:55:19.997Z,9.73
2023-08-20T02:57:23.547Z,9.60
2023-08-20T02:59:26.944Z,9.60
2023-08-20T03:01:30.649Z,9.10
2023-08-20T03:03:34.306Z,9.37
2023-08-20T03:05:37.916Z,9.70
2023-08-20T03:07:42.719Z,8.80
2023-08-20T03:09:46.044Z,8.43
2023-08-20T03:11:49.560Z,8.23
2023-08-20T03:13:52.938Z,9.40
2023-08-20T03:15:56.312Z,9.10
2023-08-20T03:17:59.821Z,10.27
2023-08-20T03:20:06.993Z,10.20
2023-08-20T03:22:10.349Z,9.90
2023-08-20T03:24:15.012Z,9.53
2023-08-20T03:26:18.360Z,9.93
2023-08-20T03:28:23.454Z,10.50
2023-08-20T03:30:27.428Z,10.30
2023-08-20T03:32:30.968Z,8.97
2023-08-20T03:34:34.578Z,10.27
2023-08-20T03:36:37.987Z,10.07
2023-08-20T03:38:41.433Z,10.00
2023-08-20T03:40:47.326Z,10.27
2023-08-20T03:42:49.711Z,11.60
2023-08-20T03:44:54.438Z,11.30
2023-08-20T03:46:58.815Z,10.67
2023-08-20T03:49:03.984Z,10.50
2023-08-20T03:51:07.527Z,11.87
2023-08-20T03:53:10.909Z,10.23
2023-08-20T03:55:14.302Z,10.33
2023-08-20T03:57:19.061Z,10.40
2023-08-20T03:59:23.316Z,10.63
2023-08-20T04:01:26.898Z,10.50
2023-08-20T04:03:30.314Z,11.37
2023-08-20T04:05:38.142Z,11.23
2023-08-20T04:07:43.874Z,11.17
2023-08-20T04:09:47.267Z,12.37
2023-08-20T04:11:51.254Z,11.17
2023-08-20T04:13:56.294Z,12.90
2023-08-20T04:16:01.156Z,12.00
2023-08-20T04:18:07.934Z,11.57
2023-08-20T04:20:14.658Z,12.00
2023-08-20T04:22:18.818Z,12.47
2023-08-20T04:24:22.444Z,11.47
2023-08-20T04:26:26.261Z,12.93
2023-08-20T04:28:29.719Z,12.73
2023-08-20T04:30:34.504Z,13.07
2023-08-20T04:32:37.986Z,13.20
2023-08-20T04:34:41.403Z,12.07
2023-08-20T04:36:44.824Z,11.20
2023-08-20T04:38:48.211Z,11.13
2023-08-20T04:40:51.760Z,11.10
2023-08-20T04:42:55.251Z,12.10
2023-08-20T04:44:58.703Z,12.20
2023-08-20T04:47:04.944Z,12.47
2023-08-20T04:49:10.683Z,11.60
2023-08-20T04:51:15.406Z,11.93
2023-08-20T04:53:19.335Z,13.23
2023-08-20T04:55:24.299Z,12.77
2023-08-20T04:57:27.814Z,12.60
2023-08-20T04:59:32.977Z,12.47
2023-08-20T05:01:36.293Z,10.60
2023-08-20T05:03:41.244Z,9.70
2023-08-20T05:05:44.723Z,12.10
2023-08-20T05:07:48.179Z,11.53
2023-08-20T05:09:52.163Z,12.30
2023-08-20T05:11:56.284Z,13.50
2023-08-20T05:13:59.673Z,11.60
2023-08-20T05:16:03.169Z,11.90
2023-08-20T05:18:07.125Z,11.50
2023-08-20T05:20:13.153Z,10.30
2023-08-20T05:22:16.635Z,12.57
2023-08-20T05:24:20.101Z,11.80
2023-08-20T05:26:24.381Z,12.97
2023-08-20T05:28:27.850Z,14.40
2023-08-20T05:30:32.894Z,14.10
2023-08-20T05:32:36.641Z,12.43
2023-08-20T05:34:40.645Z,13.87
2023-08-20T05:36:45.533Z,13.93
2023-08-20T05:38:48.968Z,13.60
2023-08-20T05:40:52.716Z,12.60
2023-08-20T05:42:56.264Z,13.57
2023-08-20T05:45:00.231Z,14.43
2023-08-20T05:47:06.511Z,13.93
2023-08-20T05:49:10.685Z,14.03
2023-08-20T05:51:14.971Z,15.27
2023-08-20T05:53:20.029Z,16.07
2023-08-20T05:55:24.284Z,15.87
2023-08-20T05:57:27.828Z,16.43
2023-08-20T05:59:31.354Z,18.07
2023-08-20T06:01:34.887Z,15.87
2023-08-20T06:03:38.376Z,16.40
2023-08-20T06:05:41.731Z,16.83
2023-08-20T06:07:45.266Z,17.87
2023-08-20T06:09:51.146Z,13.50
2023-08-20T06:11:54.542Z,17.13
2023-08-20T06:16:15.499Z,16.13
2023-08-20T06:18:18.980Z,15.37
2023-08-20T06:20:22.418Z,15.63
2023-08-20T06:22:25.804Z,17.17
2023-08-20T06:24:29.185Z,14.23
2023-08-20T06:26:33.928Z,16.13
2023-08-20T06:28:37.354Z,14.60
2023-08-20T06:30:40.727Z,15.37
2023-08-20T06:32:45.128Z,15.57
2023-08-20T06:34:48.645Z,16.03
2023-08-20T06:36:52.034Z,16.00
2023-08-20T06:38:54.545Z,15.37
2023-08-20T06:40:58.648Z,15.50
2023-08-20T06:43:03.367Z,17.97
2023-08-20T06:45:09.069Z,17.10
2023-08-20T06:47:12.956Z,16.20
2023-08-20T06:49:16.466Z,15.37
2023-08-20T06:51:23.128Z,13.90
2023-08-20T06:53:26.584Z,14.90
2023-08-20T06:55:30.046Z,17.33
2023-08-20T06:57:33.736Z,14.30
2023-08-20T06:59:38.619Z,16.20
2023-08-20T07:01:42.013Z,15.97
2023-08-20T07:03:46.292Z,16.03
2023-08-20T07:05:49.709Z,16.37
2023-08-20T07:07:53.059Z,16.97
2023-08-20T07:09:56.480Z,14.20
2023-08-20T07:11:59.905Z,15.53
2023-08-20T07:14:03.807Z,12.70
2023-08-20T07:16:08.608Z,14.40
2023-08-20T07:18:14.327Z,16.03
2023-08-20T07:20:18.028Z,15.37
2023-08-20T07:22:21.405Z,16.73
2023-08-20T07:24:26.749Z,15.87
2023-08-20T07:26:30.236Z,14.40
2023-08-20T07:28:47.567Z,17.70
2023-08-20T07:30:50.958Z,15.50
2023-08-20T07:32:55.702Z,14.50
2023-08-20T07:34:59.049Z,14.50
2023-08-20T07:37:03.820Z,16.70
2023-08-20T07:39:07.294Z,15.50
2023-08-20T07:41:09.732Z,16.97
2023-08-20T07:43:13.109Z,15.20
2023-08-20T07:45:16.526Z,16.93
2023-08-20T07:47:19.908Z,16.83
2023-08-20T07:49:24.857Z,16.17
2023-08-20T07:51:28.401Z,15.30
2023-08-20T07:53:32.203Z,14.43
2023-08-20T07:55:35.595Z,16.20
2023-08-20T07:57:38.954Z,17.60
2023-08-20T07:59:42.369Z,15.53
2023-08-20T08:01:44.837Z,16.83
2023-08-20T08:03:48.331Z,16.53
2023-08-20T08:05:52.236Z,17.83
2023-08-20T08:07:55.665Z,15.10
2023-08-20T08:09:59.109Z,17.67
2023-08-20T08:12:03.085Z,17.90
2023-08-20T08:14:06.463Z,16.87
2023-08-20T08:16:09.961Z,17.60
2023-08-20T08:18:14.119Z,17.80
2023-08-20T08:20:17.498Z,16.40
2023-08-20T08:22:23.449Z,14.50
2023-08-20T08:24:26.881Z,15.70
2023-08-20T08:26:30.537Z,17.10
2023-08-20T08:28:33.924Z,20.57
2023-08-20T08:30:37.306Z,18.27
2023-08-20T08:32:40.726Z,19.57
2023-08-20T08:34:44.117Z,17.73
2023-08-20T08:36:47.451Z,16.10
2023-08-20T08:38:52.432Z,17.90
2023-08-20T08:40:57.332Z,14.10
2023-08-20T08:43:02.073Z,16.13
2023-08-20T08:45:06.466Z,15.30
2023-08-20T08:47:10.040Z,18.73
2023-08-20T08:49:13.595Z,16.47
2023-08-20T08:51:17.381Z,14.80
2023-08-20T08:53:21.276Z,14.63
2023-08-20T08:55:26.155Z,18.20
2023-08-20T08:57:29.615Z,14.03
2023-08-20T08:59:33.904Z,15.10
2023-08-20T09:01:41.189Z,15.00
2023-08-20T09:03:44.554Z,14.00
2023-08-20T09:05:49.113Z,13.97
2023-08-20T09:07:57.522Z,14.57
2023-08-20T09:10:01.664Z,13.90
2023-08-20T09:12:14.849Z,13.53
2023-08-20T09:14:25.423Z,14.27
2023-08-20T09:16:31.884Z,11.60
2023-08-20T09:18:39.770Z,11.73
2023-08-20T09:20:43.157Z,9.83
2023-08-20T09:22:51.150Z,11.57
2023-08-20T09:24:56.077Z,12.07
2023-08-20T09:27:00.313Z,12.77
2023-08-20T09:29:05.668Z,11.40
2023-08-20T09:31:11.227Z,11.90
2023-08-20T09:33:15.606Z,12.93
2023-08-20T09:35:20.894Z,12.00
2023-08-20T09:37:25.133Z,11.60
2023-08-20T09:39:28.565Z,12.60
2023-08-20T09:41:32.751Z,10.93
2023-08-20T09:43:39.861Z,10.80
2023-08-20T09:45:47.258Z,10.90
2023-08-20T09:47:51.503Z,10.30
2023-08-20T09:49:56.673Z,9.13
2023-08-20T09:52:01.060Z,10.00
2023-08-20T09:54:13.885Z,7.93
2023-08-20T09:56:23.740Z,8.57
2023-08-20T09:58:28.308Z,8.17
2023-08-20T10:00:32.827Z,8.33
2023-08-20T10:02:38.258Z,8.50
2023-08-20T10:04:42.055Z,7.27
2023-08-20T10:06:45.685Z,7.73
2023-08-20T10:08:50.546Z,7.67
2023-08-20T10:10:54.162Z,7.60
2023-08-20T10:12:58.513Z,22.97
2023-08-20T10:15:03.041Z,7.37
2023-08-20T10:17:09.693Z,7.43
2023-08-20T10:19:16.697Z,8.40
2023-08-20T10:21:20.847Z,7.43
2023-08-20T10:23:25.092Z,6.00
2023-08-20T10:25:28.733Z,6.60
2023-08-20T10:27:34.471Z,7.03
2023-08-20T10:29:39.993Z,6.60
2023-08-20T10:31:48.494Z,6.87
2023-08-20T10:33:52.893Z,8.37
2023-08-20T10:35:57.603Z,7.63
2023-08-20T10:38:08.336Z,7.87
2023-08-20T10:40:12.754Z,9.97
2023-08-20T10:42:27.586Z,9.00
2023-08-20T10:45:00.756Z,8.57
2023-08-20T10:47:09.001Z,10.13
2023-08-20T10:49:19.253Z,10.20
2023-08-20T10:51:29.636Z,10.67
2023-08-20T10:53:32.974Z,11.63
2023-08-20T10:55:36.378Z,10.40
2023-08-20T10:57:39.978Z,11.50
2023-08-20T10:59:43.867Z,11.63
2023-08-20T11:01:48.411Z,10.93
2023-08-20T11:03:52.807Z,11.07
2023-08-20T11:05:56.424Z,12.87
2023-08-20T11:08:01.829Z,11.90
2023-08-20T11:10:09.635Z,11.90
2023-08-20T11:12:12.952Z,10.90
2023-08-20T11:14:17.438Z,11.90
2023-08-20T11:16:20.760Z,11.73
2023-08-20T11:18:24.158Z,11.47
2023-08-20T11:20:27.666Z,11.60
2023-08-20T11:22:31.154Z,11.00
2023-08-20T11:24:35.001Z,10.83
2023-08-20T11:26:41.482Z,11.13
2023-08-20T11:28:47.940Z,11.23
2023-08-20T11:30:50.663Z,11.13
2023-08-20T11:32:54.767Z,10.17
2023-08-20T11:34:58.510Z,11.70
2023-08-20T11:37:01.989Z,10.30
2023-08-20T11:39:05.689Z,10.27
2023-08-20T11:41:10.404Z,11.00
2023-08-20T11:43:14.037Z,10.30
2023-08-20T11:45:17.539Z,10.80
2023-08-20T11:47:21.337Z,10.87
2023-08-20T11:49:31.208Z,9.13
2023-08-20T11:51:38.462Z,9.40
2023-08-20T11:53:42.431Z,8.07
2023-08-20T11:55:45.796Z,9.53
2023-08-20T11:57:52.259Z,9.17
2023-08-20T11:59:55.695Z,8.80
2023-08-20T12:02:01.209Z,10.10
2023-08-20T12:04:05.766Z,8.80
2023-08-20T12:06:20.402Z,9.30
2023-08-20T12:08:23.864Z,9.33
2023-08-20T12:10:27.446Z,8.93
2023-08-20T12:12:30.888Z,9.67
2023-08-20T12:14:36.087Z,8.67
2023-08-20T12:16:39.795Z,9.60
2023-08-20T12:18:43.411Z,9.37
2023-08-20T12:20:46.818Z,9.60
2023-08-20T12:22:49.380Z,8.63
2023-08-20T12:24:54.406Z,9.87
2023-08-20T12:26:57.884Z,9.10
2023-08-20T12:29:01.594Z,10.10
2023-08-20T12:31:06.346Z,8.83
2023-08-20T12:33:09.820Z,8.90
2023-08-20T12:35:14.151Z,9.57
2023-08-20T12:37:17.571Z,8.73
2023-08-20T12:39:21.201Z,8.80
2023-08-20T12:41:25.285Z,9.67
2023-08-20T12:43:28.743Z,8.67
2023-08-20T12:45:32.252Z,8.73
2023-08-20T12:47:36.426Z,9.00
2023-08-20T12:49:40.217Z,8.30
2023-08-20T12:51:43.593Z,9.00
2023-08-20T12:53:47.092Z,8.10
2023-08-20T12:55:50.484Z,8.70
2023-08-20T12:57:56.114Z,9.10
2023-08-20T13:00:00.039Z,8.00
2023-08-20T13:02:03.971Z,8.40
2023-08-20T13:04:10.281Z,7.60
2023-08-20T13:06:14.540Z,7.77
2023-08-20T13:08:18.549Z,7.80
2023-08-20T13:10:23.238Z,7.80
2023-08-20T13:12:29.328Z,8.10
2023-08-20T13:14:33.248Z,7.20
2023-08-20T13:16:37.834Z,7.40
2023-08-20T13:18:41.678Z,7.53
2023-08-20T13:20:46.617Z,7.63
2023-08-20T13:22:50.174Z,7.13
2023-08-20T13:24:53.541Z,7.10
2023-08-20T13:26:57.063Z,7.10
2023-08-20T13:29:00.524Z,6.57
2023-08-20T13:31:04.055Z,7.10
2023-08-20T13:33:08.257Z,6.80
2023-08-20T13:35:11.839Z,6.63
2023-08-20T13:37:16.569Z,6.80
2023-08-20T13:39:20.240Z,6.67
2023-08-20T13:41:23.658Z,6.60
2023-08-20T13:43:27.037Z,6.60
2023-08-20T13:45:30.447Z,7.70
2023-08-20T13:47:33.953Z,6.77
2023-08-20T13:49:37.405Z,6.63
2023-08-20T13:51:39.944Z,6.30
2023-08-20T13:53:44.673Z,7.50
2023-08-20T13:55:48.029Z,6.93
2023-08-20T13:57:51.434Z,7.30
2023-08-20T13:59:54.753Z,6.90
2023-08-20T14:01:58.153Z,7.07
2023-08-20T14:04:01.566Z,7.23
2023-08-20T14:06:05.034Z,7.43
2023-08-20T14:08:08.547Z,7.00
2023-08-20T14:10:13.770Z,7.27
2023-08-20T14:12:17.194Z,7.23
2023-08-20T14:14:20.622Z,7.20
2023-08-20T14:16:24.003Z,7.80
2023-08-20T14:18:27.521Z,7.73
2023-08-20T14:20:31.048Z,6.93
2023-08-20T14:22:34.744Z,6.83
2023-08-20T14:24:38.431Z,7.60
2023-08-20T14:26:43.105Z,7.70
2023-08-20T14:28:46.720Z,8.10
2023-08-20T14:30:51.121Z,7.93
2023-08-20T14:32:55.439Z,8.27
2023-08-20T14:34:58.823Z,6.93
2023-08-20T14:37:02.206Z,7.37
2023-08-20T14:39:07.897Z,8.03
2023-08-20T14:41:11.375Z,7.90
2023-08-20T14:43:16.108Z,7.80
2023-08-20T14:45:18.445Z,7.60
2023-08-20T14:47:21.907Z,7.70
2023-08-20T14:49:25.377Z,7.63
2023-08-20T14:51:29.454Z,7.30
2023-08-20T14:53:33.128Z,7.03
2023-08-20T14:55:36.480Z,7.70
2023-08-20T14:57:50.828Z,7.60
2023-08-20T14:59:56.742Z,7.33
2023-08-20T15:02:00.302Z,7.43
2023-08-20T15:04:03.753Z,7.80
2023-08-20T15:06:07.144Z,7.53
2023-08-20T15:08:09.709Z,7.40
2023-08-20T15:10:13.084Z,7.90
2023-08-20T15:12:16.512Z,7.13
2023-08-20T15:14:20.025Z,7.47
2023-08-20T15:16:24.839Z,8.07
2023-08-20T15:18:28.273Z,7.93
2023-08-20T15:20:31.802Z,7.80
2023-08-20T15:22:34.201Z,8.07
2023-08-20T15:24:37.756Z,8.20
2023-08-20T15:26:41.136Z,9.90
2023-08-20T15:28:44.478Z,7.03
2023-08-20T15:30:48.038Z,7.60
2023-08-20T15:32:52.905Z,8.30
2023-08-20T15:34:56.814Z,8.20
2023-08-20T15:37:00.173Z,8.17
2023-08-20T15:39:04.294Z,7.20
2023-08-20T15:41:07.781Z,7.10
2023-08-20T15:43:11.121Z,7.00
2023-08-20T15:45:14.565Z,7.70
2023-08-20T15:47:17.980Z,7.00
2023-08-20T15:49:22.885Z,7.23
2023-08-20T15:51:26.322Z,6.47
2023-08-20T15:53:29.669Z,7.90
2023-08-20T15:55:33.030Z,7.77
2023-08-20T15:57:36.601Z,7.50
2023-08-20T15:59:40.314Z,7.70
2023-08-20T16:01:44.084Z,7.73
2023-08-20T16:03:47.614Z,7.13
2023-08-20T16:05:52.447Z,7.07
2023-08-20T16:07:55.786Z,7.10
2023-08-20T16:09:59.124Z,7.40
2023-08-20T16:12:02.453Z,6.80
2023-08-20T16:14:05.900Z,7.17
2023-08-20T16:16:09.354Z,7.10
2023-08-20T16:18:12.816Z,6.70
2023-08-20T16:20:16.232Z,7.03
2023-08-20T16:22:21.036Z,6.17
2023-08-20T16:24:24.419Z,6.43
2023-08-20T16:26:27.746Z,7.43
2023-08-20T16:28:31.316Z,6.00
2023-08-20T16:30:34.840Z,7.17
2023-08-20T16:32:38.357Z,5.67
2023-08-20T16:34:42.862Z,6.90
2023-08-20T16:36:46.300Z,5.50
2023-08-20T16:38:50.971Z,6.10
2023-08-20T16:40:55.565Z,5.30
2023-08-20T16:43:00.684Z,5.03
2023-08-20T16:45:07.337Z,5.20
2023-08-20T16:47:10.882Z,6.17
2023-08-20T16:49:14.476Z,6.43
2023-08-20T16:51:17.804Z,6.40
2023-08-20T16:53:21.778Z,6.03
2023-08-20T16:55:26.974Z,6.07
2023-08-20T16:57:30.644Z,6.27
2023-08-20T16:59:34.010Z,6.00
2023-08-20T17:01:37.506Z,5.70
2023-08-20T17:03:41.196Z,6.00
2023-08-20T17:05:44.663Z,5.70
2023-08-20T17:07:48.023Z,5.63
2023-08-20T17:09:51.758Z,5.90
2023-08-20T17:11:57.236Z,6.47
2023-08-20T17:14:01.144Z,5.87
2023-08-20T17:16:05.178Z,5.90
2023-08-20T17:18:09.037Z,5.70
2023-08-20T17:20:13.591Z,5.33
2023-08-20T17:22:17.037Z,5.00
2023-08-20T17:24:20.612Z,5.37
2023-08-20T17:26:24.026Z,6.13
2023-08-20T17:28:28.763Z,6.10
2023-08-20T17:30:31.430Z,5.97
2023-08-20T17:32:35.103Z,5.00
2023-08-20T17:34:38.790Z,4.83
2023-08-20T17:36:42.153Z,6.47
2023-08-20T17:38:45.708Z,4.90
2023-08-20T17:40:49.081Z,5.90
2023-08-20T17:42:52.454Z,4.80
2023-08-20T17:44:57.261Z,4.53
2023-08-20T17:47:00.716Z,4.90
2023-08-20T17:49:04.303Z,5.00
2023-08-20T17:51:07.672Z,4.33
2023-08-20T17:53:11.052Z,4.80
2023-08-20T17:55:14.553Z,4.70
2023-08-20T17:57:17.945Z,4.73
2023-08-20T17:59:21.450Z,4.93
2023-08-20T18:01:26.249Z,4.50
2023-08-20T18:03:29.762Z,4.17
2023-08-20T18:05:33.633Z,4.07
2023-08-20T18:07:37.049Z,5.00
2023-08-20T18:09:40.426Z,4.60
2023-08-20T18:11:43.830Z,4.83
2023-08-20T18:13:47.218Z,4.40
2023-08-20T18:15:50.710Z,4.30
2023-08-20T18:17:55.474Z,5.43
2023-08-20T18:19:58.058Z,4.50
2023-08-20T18:22:01.480Z,4.83
2023-08-20T18:24:05.347Z,4.17
2023-08-20T18:26:09.154Z,5.03
2023-08-20T18:28:12.656Z,4.80
2023-08-20T18:30:16.078Z,5.00
2023-08-20T18:32:19.511Z,4.50
2023-08-20T18:34:24.233Z,4.23
2023-08-20T18:36:27.817Z,4.70
2023-08-20T18:38:42.129Z,4.50
2023-08-20T18:40:45.536Z,4.80
2023-08-20T18:42:49.284Z,5.20
2023-08-20T18:44:52.604Z,4.80
2023-08-20T18:46:56.114Z,4.30
2023-08-20T18:48:59.553Z,4.53
2023-08-20T18:51:07.186Z,4.83
2023-08-20T18:53:10.624Z,5.47
2023-08-20T18:55:14.025Z,4.00
2023-08-20T18:57:17.730Z,4.63
2023-08-20T18:59:21.228Z,4.37
2023-08-20T19:01:24.690Z,4.97
2023-08-20T19:03:28.198Z,4.70
2023-08-20T19:05:31.973Z,4.60
2023-08-20T19:07:38.154Z,5.00
2023-08-20T19:09:41.672Z,4.87
2023-08-20T19:11:45.141Z,4.63
2023-08-20T19:13:48.598Z,4.80
2023-08-20T19:15:54.489Z,4.43
2023-08-20T19:17:58.563Z,4.50
2023-08-20T19:20:02.043Z,4.40
2023-08-20T19:22:05.604Z,4.43
2023-08-20T19:24:10.356Z,4.47
2023-08-20T19:26:13.822Z,4.97
2023-08-20T19:28:17.189Z,5.10
2023-08-20T19:30:20.678Z,4.43
2023-08-20T19:32:24.260Z,7.43
2023-08-20T19:34:27.743Z,22.00
2023-08-20T19:36:31.131Z,6.37
2023-08-20T19:38:34.495Z,4.50
2023-08-20T19:40:39.843Z,5.90
2023-08-20T19:42:45.093Z,5.43
2023-08-20T19:44:48.480Z,16.13
2023-08-20T19:46:51.946Z,25.80
2023-08-20T19:48:55.506Z,10.20
2023-08-20T19:50:59.195Z,5.80
2023-08-20T19:53:02.571Z,4.53
2023-08-20T19:55:06.814Z,5.00
2023-08-20T19:57:11.540Z,4.87
2023-08-20T19:59:15.417Z,4.37
2023-08-20T20:01:19.301Z,4.73
2023-08-20T20:03:22.737Z,5.10
2023-08-20T20:05:26.884Z,4.80
2023-08-20T20:07:30.298Z,5.00
2023-08-20T20:09:33.681Z,4.37
2023-08-20T20:11:37.125Z,4.90
2023-08-20T20:13:42.066Z,4.87
2023-08-20T20:15:45.852Z,4.67
2023-08-20T20:17:49.309Z,4.33
2023-08-20T20:19:52.753Z,4.60
2023-08-20T20:21:56.156Z,5.00
2023-08-20T20:23:58.600Z,5.00
2023-08-20T20:26:05.016Z,4.57
2023-08-20T20:28:08.446Z,6.20
2023-08-20T20:30:12.950Z,6.67
2023-08-20T20:32:16.651Z,5.27
2023-08-20T20:34:20.084Z,4.70
2023-08-20T20:36:23.484Z,5.40
2023-08-20T20:38:27.608Z,5.53
2023-08-20T20:40:30.976Z,4.60
2023-08-20T20:42:34.379Z,4.80
2023-08-20T20:44:37.964Z,5.03
2023-08-20T20:46:42.778Z,4.50
2023-08-20T20:48:46.326Z,5.37
2023-08-20T20:50:49.951Z,4.67
2023-08-20T20:52:53.335Z,5.23
2023-08-20T20:54:56.946Z,5.40
2023-08-20T20:57:00.777Z,5.13
2023-08-20T20:59:05.328Z,4.60
2023-08-20T21:01:09.125Z,4.57
2023-08-20T21:03:13.884Z,5.33
2023-08-20T21:05:17.414Z,5.20
2023-08-20T21:07:20.857Z,5.57
2023-08-20T21:09:24.259Z,4.50
2023-08-20T21:11:27.708Z,5.37
2023-08-20T21:13:33.821Z,5.03
2023-08-20T21:15:37.175Z,5.20
2023-08-20T21:17:40.824Z,4.67
2023-08-20T21:19:45.469Z,4.53
2023-08-20T21:21:48.902Z,4.93
2023-08-20T21:23:56.306Z,4.80
2023-08-20T21:25:59.626Z,4.60
2023-08-20T21:28:02.998Z,4.87
2023-08-20T21:30:07.276Z,5.10
2023-08-20T21:32:10.576Z,4.57
2023-08-20T21:34:13.879Z,4.23
2023-08-20T21:36:18.638Z,4.63
2023-08-20T21:38:20.964Z,5.00
2023-08-20T21:40:24.323Z,5.07
2023-08-20T21:42:27.035Z,4.90
2023-08-20T21:44:30.419Z,5.03
2023-08-20T21:46:33.810Z,4.20
2023-08-20T21:48:37.218Z,4.37
2023-08-20T21:50:41.310Z,4.20
2023-08-20T21:52:46.641Z,5.40
2023-08-20T21:54:53.201Z,5.60
2023-08-20T21:56:56.918Z,40.87
2023-08-20T21:59:04.064Z,8.80
2023-08-20T22:01:09.568Z,5.90
2023-08-20T22:03:12.988Z,4.57
2023-08-20T22:05:17.286Z,5.23
2023-08-20T22:07:20.577Z,4.07
2023-08-20T22:09:25.770Z,4.70
2023-08-20T22:11:29.234Z,4.80
2023-08-20T22:13:32.662Z,5.40
2023-08-20T22:15:35.951Z,6.00
2023-08-20T22:17:39.490Z,4.67
2023-08-20T22:19:43.054Z,5.13
2023-08-20T22:21:47.680Z,4.60
2023-08-20T22:23:51.550Z,5.57
2023-08-20T22:25:56.385Z,4.67
2023-08-20T22:27:59.714Z,5.07
2023-08-20T22:30:02.098Z,5.33
2023-08-20T22:32:06.001Z,5.33
2023-08-20T22:34:09.488Z,5.60
2023-08-20T22:36:12.793Z,5.70
2023-08-20T22:38:16.630Z,5.43
2023-08-20T22:40:20.115Z,5.83
2023-08-20T22:42:25.007Z,5.60
2023-08-20T22:44:28.382Z,5.30
2023-08-20T22:46:31.850Z,5.03
2023-08-20T22:48:35.326Z,4.60
2023-08-20T22:50:39.270Z,5.40
2023-08-20T22:52:42.641Z,5.13
2023-08-20T22:54:45.970Z,5.37
2023-08-20T22:56:49.344Z,5.70
2023-08-20T22:58:54.063Z,6.57
2023-08-20T23:00:57.535Z,4.80
2023-08-20T23:03:00.969Z,6.00
2023-08-20T23:05:05.411Z,5.83
2023-08-20T23:07:08.854Z,6.07
2023-08-20T23:09:12.262Z,5.67
2023-08-20T23:11:15.621Z,4.60
2023-08-20T23:13:18.951Z,5.50
2023-08-20T23:15:24.570Z,5.80
2023-08-20T23:17:28.776Z,5.50
2023-08-20T23:19:32.328Z,5.40
2023-08-20T23:21:35.749Z,5.13
2023-08-20T23:23:39.183Z,5.90
2023-08-20T23:25:42.606Z,5.60
2023-08-20T23:27:45.922Z,5.57
2023-08-20T23:29:49.486Z,6.00
2023-08-20T23:31:54.245Z,6.13
2023-08-20T23:33:57.690Z,4.57
2023-08-20T23:36:03.293Z,5.27
2023-08-20T23:38:06.697Z,5.10
2023-08-20T23:40:11.517Z,5.60
2023-08-20T23:42:15.479Z,5.40
2023-08-20T23:44:19.509Z,5.70
2023-08-20T23:46:34.205Z,5.80
2023-08-20T23:48:47.966Z,5.33
2023-08-20T23:50:51.268Z,5.17
2023-08-20T23:52:54.907Z,5.60
2023-08-20T23:54:58.433Z,5.63
2023-08-20T23:57:02.405Z,5.70
2023-08-20T23:59:05.828Z,6.10
